Latest Weather Observations for Naracoorte

IDS60801

Issued at 10:11 am CST Tuesday 16 August 2022 (issued every 10 minutes, with the page automatically refreshed every 10 minutes)

About weather observations | Map of weather stations | Latest weather observations for SA | Other Formats
Station Details ID: 026099 Name: NARACOORTE AERODROME Lat: -36.98 Lon: 140.73 Height: 49.72 m
Data from the previous 72 hours. | See also: Recent months at Naracoorte
Date/Time
CST
Temp
°C
App
Temp
°C
Dew
Point
°C
Rel
Hum
%
Delta-T
°C
Wind Press
QNH
hPa
Press
MSL
hPa
Rain since
9am
mm
Dir  Spd
km/h
Gust
km/h
Spd
kts
Gust
kts
16/10:00am 11.9 6.8 9.1 83 1.4 SSW 26 37 14 20 1018.2 1018.2 0.0
16/09:30am 11.2 6.4 8.9 86 1.1 SW 24 32 13 17 1017.9 1017.9 0.0
16/09:00am 10.9 6.2 9.2 89 0.8 SW 24 28 13 15 1018.0 1018.0 1.8
16/08:30am 10.3 6.3 9.2 93 0.5 SW 20 26 11 14 1017.7 1017.7 1.8
16/08:00am 9.5 6.4 8.7 95 0.4 SW 15 20 8 11 1017.3 1017.3 1.8
16/07:30am 8.3 5.3 7.7 96 0.3 WSW 13 15 7 8 1016.7 1016.8 1.8
16/07:00am 6.8 3.5 6.2 96 0.3 W 13 15 7 8 1015.9 1016.0 1.6
16/06:30am 5.6 2.0 4.9 95 0.3 W 13 13 7 7 1014.9 1015.0 1.6
16/06:00am 6.4 3.0 5.7 95 0.3 WSW 13 15 7 8 1014.4 1014.5 1.6
16/05:30am 7.0 3.6 6.1 94 0.4 WSW 13 15 7 8 1013.6 1013.7 1.6
16/05:00am 7.7 4.8 6.6 93 0.5 WSW 11 13 6 7 1013.0 1013.1 1.6
16/04:30am 8.8 5.8 7.7 93 0.5 WSW 13 17 7 9 1012.7 1012.8 1.6
16/04:00am 9.5 6.0 8.6 94 0.4 WSW 17 22 9 12 1012.4 1012.5 1.6
16/03:30am 9.5 5.3 8.4 93 0.5 WSW 20 30 11 16 1012.2 1012.3 1.6
16/03:00am 9.3 5.1 8.2 93 0.5 WSW 20 24 11 13 1012.1 1012.2 1.6
16/02:30am 9.2 5.2 8.1 93 0.5 WSW 19 24 10 13 1012.2 1012.3 1.6
16/02:00am 8.9 5.2 7.8 93 0.5 WSW 17 20 9 11 1012.3 1012.4 1.6
16/01:30am 8.8 5.0 7.6 92 0.6 W 17 22 9 12 1012.2 1012.3 1.6
16/01:00am 8.7 4.3 7.3 91 0.7 WSW 20 26 11 14 1012.0 1012.1 1.6
16/12:30am 8.4 4.9 7.2 92 0.6 WSW 15 20 8 11 1011.8 1011.9 1.4
16/12:00am 7.8 4.2 6.6 92 0.6 W 15 17 8 9 1011.4 1011.5 1.4
 
Date/Time
CST
Temp
°C
App
Temp
°C
Dew
Point
°C
Rel
Hum
%
Delta-T
°C
Wind Press
QNH
hPa
Press
MSL
hPa
Rain since
9am
mm
Dir  Spd
km/h
Gust
km/h
Spd
kts
Gust
kts
15/11:30pm 7.1 3.7 5.7 91 0.6 WNW 13 15 7 8 1011.2 1011.3 1.4
15/11:00pm 7.9 3.8 6.2 89 0.8 W 17 20 9 11 1011.0 1011.1 1.4
15/10:30pm 8.3 4.7 6.9 91 0.7 W 15 17 8 9 1011.0 1011.1 1.4
15/10:00pm 8.6 4.3 7.1 90 0.7 W 19 26 10 14 1011.0 1011.1 1.4
15/09:30pm 7.2 3.4 6.0 92 0.5 NW 15 17 8 9 1010.8 1010.9 1.2
15/09:00pm 7.4 3.7 6.2 92 0.5 WNW 15 17 8 9 1010.6 1010.7 1.2
15/08:30pm 6.8 3.4 5.9 94 0.4 W 13 15 7 8 1010.3 1010.4 1.2
15/08:00pm 7.0 3.5 5.6 91 0.6 W 13 15 7 8 1010.1 1010.2 1.2
15/07:30pm 7.1 3.7 5.9 92 0.5 WNW 13 15 7 8 1009.9 1010.0 1.2
15/07:00pm 7.7 4.3 6.0 89 0.8 WSW 13 15 7 8 1009.5 1009.6 1.2
15/06:30pm 9.6 4.9 7.9 89 0.8 SW 22 30 12 16 1009.3 1009.4 1.2
15/06:00pm 10.0 6.3 8.1 88 0.9 SW 17 35 9 19 1008.9 1009.0 1.0
15/05:30pm 9.3 6.2 7.1 86 1.0 WSW 13 17 7 9 1008.3 1008.4 0.8
15/05:00pm 10.7 7.0 7.8 82 1.4 SW 17 24 9 13 1007.8 1007.9 0.4
15/04:30pm 13.0 7.3 8.5 74 2.3 WSW 28 39 15 21 1007.6 1007.7 0.2
15/04:00pm 12.8 7.1 8.5 75 2.1 SW 28 37 15 20 1007.4 1007.5 0.2
15/03:30pm 12.5 5.1 8.2 75 2.1 SW 37 54 20 29 1007.3 1007.4 0.2
15/03:25pm 12.9 5.3 7.6 70 2.6 WSW 37 54 20 29 1007.2 1007.3 0.2
15/03:00pm 13.5 7.1 6.8 64 3.3 WSW 30 39 16 21 1007.1 1007.2 0.2
15/02:30pm 14.0 6.8 6.1 59 3.8 WSW 33 44 18 24 1006.9 1007.0 0.2
15/02:00pm 14.8 7.1 6.9 59 3.9 WSW 37 46 20 25 1006.7 1006.8 0.2
15/01:30pm 13.9 7.5 7.0 63 3.4 WSW 30 39 16 21 1006.8 1006.9 0.2
15/01:00pm 14.2 7.5 7.3 63 3.4 WSW 32 44 17 24 1007.0 1007.1 0.2
15/12:30pm 13.5 8.0 7.7 68 2.9 WSW 26 35 14 19 1007.2 1007.3 0.2
15/12:00pm 13.1 9.1 9.0 76 2.1 WSW 20 35 11 19 1007.6 1007.7 0.2
15/11:30am 13.9 8.3 8.9 72 2.5 W 28 35 15 19 1007.8 1007.9 0.0
15/11:00am 12.3 6.1 8.0 75 2.1 W 30 44 16 24 1008.1 1008.2 0.0
15/10:30am 13.0 8.4 8.3 73 2.3 W 22 32 12 17 1008.2 1008.3 0.0
15/10:00am 12.3 8.2 8.8 79 1.8 WNW 20 28 11 15 1008.1 1008.2 0.0
15/09:30am 10.8 7.5 8.2 84 1.3 NW 15 20 8 11 1008.4 1008.5 0.0
15/09:00am 9.8 6.5 8.1 89 0.8 NW 15 19 8 10 1008.5 1008.6 0.0
15/08:30am 8.4 5.2 7.0 91 0.7 NW 13 19 7 10 1008.5 1008.6 0.0
15/08:00am 6.7 3.3 5.8 94 0.4 NW 13 17 7 9 1008.4 1008.5 0.0
15/07:30am 5.6 1.6 4.9 95 0.3 NW 15 19 8 10 1008.3 1008.4 0.0
15/07:00am 5.6 1.6 4.9 95 0.3 NW 15 19 8 10 1008.2 1008.3 0.0
15/06:30am 5.2 0.4 4.6 96 0.3 NW 19 22 10 12 1008.2 1008.3 0.0
15/06:00am 4.6 1.2 3.9 95 0.3 NW 11 13 6 7 1008.0 1008.1 0.0
15/05:30am 4.8 1.4 4.1 95 0.3 NW 11 15 6 8 1008.0 1008.1 0.0
15/05:00am 5.0 1.6 4.0 93 0.4 NW 11 13 6 7 1007.9 1008.0 0.0
15/04:30am 5.3 1.9 4.1 92 0.5 NW 11 15 6 8 1008.0 1008.1 0.0
15/04:00am 5.4 1.7 4.2 92 0.5 NW 13 15 7 8 1008.1 1008.2 0.0
15/03:30am 5.3 1.6 4.3 93 0.4 NW 13 15 7 8 1008.2 1008.3 0.0
15/03:00am 5.2 1.8 4.2 93 0.4 NNW 11 15 6 8 1008.5 1008.6 0.0
15/02:30am 5.3 2.3 4.3 93 0.4 NW 9 11 5 6 1008.7 1008.8 0.0
15/02:00am 5.4 2.5 4.4 93 0.4 NW 9 13 5 7 1008.9 1009.0 0.0
15/01:30am 5.0 1.9 3.8 92 0.5 NW 9 13 5 7 1009.2 1009.3 0.0
15/01:00am 5.9 2.6 4.5 91 0.6 NW 11 15 6 8 1009.4 1009.5 0.0
15/12:30am 6.2 2.9 4.5 89 0.7 NW 11 15 6 8 1009.6 1009.7 0.0
15/12:00am 6.3 3.0 4.5 88 0.8 NW 11 15 6 8 1009.8 1009.9 0.0
 
Date/Time
CST
Temp
°C
App
Temp
°C
Dew
Point
°C
Rel
Hum
%
Delta-T
°C
Wind Press
QNH
hPa
Press
MSL
hPa
Rain since
9am
mm
Dir  Spd
km/h
Gust
km/h
Spd
kts
Gust
kts
14/11:30pm 7.2 4.1 5.5 89 0.8 NW 11 13 6 7 1010.1 1010.2 0.0
14/11:00pm 7.5 3.3 5.8 89 0.8 NW 17 19 9 10 1010.2 1010.3 0.0
14/10:30pm 6.9 3.3 5.2 89 0.8 WNW 13 13 7 7 1010.4 1010.5 0.0
14/10:00pm 7.6 3.5 6.1 90 0.7 NW 17 19 9 10 1010.6 1010.7 0.0
14/09:30pm 8.0 4.3 6.5 90 0.7 WNW 15 17 8 9 1010.7 1010.8 0.0
14/09:00pm 7.8 4.5 6.6 92 0.6 WNW 13 15 7 8 1010.7 1010.8 0.0
14/08:30pm 7.0 3.2 5.6 91 0.6 W 15 15 8 8 1010.6 1010.7 0.0
14/08:00pm 7.9 4.6 6.2 89 0.8 W 13 15 7 8 1010.5 1010.6 0.0
14/07:30pm 9.4 5.5 7.0 85 1.1 W 17 20 9 11 1010.5 1010.6 0.0
14/07:00pm 9.1 6.0 7.1 87 0.9 W 13 17 7 9 1010.6 1010.7 0.0
14/06:30pm 10.3 6.5 7.5 83 1.3 WSW 17 20 9 11 1010.7 1010.8 0.0
14/06:00pm 10.9 6.1 7.4 79 1.7 WSW 22 28 12 15 1010.6 1010.7 0.0
14/05:30pm 11.8 6.2 7.3 74 2.2 WSW 26 33 14 18 1010.6 1010.7 0.0
14/05:00pm 12.1 6.6 7.6 74 2.2 WSW 26 37 14 20 1010.4 1010.5 0.0
14/04:30pm 12.7 7.1 7.0 68 2.8 WSW 26 32 14 17 1010.2 1010.3 0.0
14/04:00pm 13.4 7.2 6.3 62 3.4 WSW 28 37 15 20 1010.3 1010.4 0.0
14/03:30pm 13.9 6.8 6.5 61 3.6 W 33 41 18 22 1010.3 1010.4 0.0
14/03:00pm 12.9 7.3 7.1 68 2.8 WSW 26 33 14 18 1010.4 1010.5 0.0
14/02:30pm 13.8 7.9 7.3 65 3.2 SW 28 35 15 19 1010.6 1010.7 0.0
14/02:00pm 14.3 8.0 5.9 57 4.0 WSW 28 35 15 19 1010.5 1010.6 0.0
14/01:30pm 14.5 7.8 7.3 62 3.5 WSW 32 43 17 23 1010.8 1010.9 0.0
14/01:00pm 14.5 7.2 5.6 55 4.2 WSW 33 41 18 22 1011.1 1011.2 0.0
14/12:30pm 14.7 8.3 8.6 67 3.1 WSW 32 44 17 24 1011.3 1011.4 0.0
14/12:28pm 14.4 7.7 7.2 62 3.5 SW 32 44 17 24 1011.3 1011.4 0.0
14/12:00pm 13.9 10.1 9.7 76 2.2 SW 20 24 11 13 1011.8 1011.9 0.0
14/11:30am 13.2 9.2 8.3 72 2.4 WSW 19 28 10 15 1012.2 1012.3 0.0
14/11:00am 13.3 8.6 9.2 76 2.1 SW 24 32 13 17 1012.5 1012.6 0.0
14/10:30am 12.7 8.5 9.7 82 1.5 SW 22 28 12 15 1012.5 1012.6 0.0
14/10:00am 11.2 9.3 10.6 96 0.3 W 11 22 6 12 1012.6 1012.7 0.0
14/09:30am 9.1 7.1 8.5 96 0.3 NW 9 11 5 6 1012.8 1012.9 0.0
14/09:00am 7.5 5.1 6.9 96 0.3 NW 9 11 5 6 1012.9 1013.0 4.4
14/08:30am 6.4 4.1 5.8 96 0.3 WNW 7 9 4 5 1012.8 1012.9 4.4
14/08:00am 6.3 4.2 5.7 96 0.3 SW 6 7 3 4 1012.9 1013.0 4.4
14/07:30am 6.5 5.6 5.9 96 0.3 CALM 0 0 0 0 1012.7 1012.8 4.2
14/07:00am 6.5 5.2 5.9 96 0.3 SW 2 7 1 4 1012.6 1012.7 4.2
14/06:30am 6.9 4.7 6.3 96 0.3 SW 7 9 4 5 1012.5 1012.6 4.2
14/06:00am 7.3 4.1 6.7 96 0.3 WSW 13 15 7 8 1012.2 1012.3 4.2
14/05:30am 8.5 6.7 7.9 96 0.3 S 7 7 4 4 1012.1 1012.2 4.2
14/05:00am 8.5 6.3 7.9 96 0.3 S 9 13 5 7 1012.2 1012.3 4.2
14/04:30am 8.5 6.3 7.9 96 0.3 S 9 11 5 6 1012.0 1012.1 4.2
14/04:00am 8.9 6.4 8.3 96 0.3 S 11 13 6 7 1012.1 1012.2 4.2
14/03:30am 9.1 6.7 8.5 96 0.3 S 11 15 6 8 1012.1 1012.2 4.2
14/03:00am 8.8 5.9 8.2 96 0.3 S 13 17 7 9 1012.2 1012.3 4.2
14/02:30am 8.7 5.8 8.1 96 0.3 SSE 13 17 7 9 1012.3 1012.4 4.2
14/02:00am 7.8 5.8 7.2 96 0.3 SSE 7 9 4 5 1012.5 1012.6 4.2
14/01:30am 7.3 5.2 6.7 96 0.3 SSE 7 9 4 5 1012.7 1012.8 4.2
14/01:00am 7.0 4.8 6.4 96 0.3 SSE 7 11 4 6 1012.7 1012.8 4.2
14/12:30am 5.7 2.5 5.1 96 0.3 S 11 13 6 7 1012.6 1012.7 4.2
14/12:00am 4.8 1.4 4.2 96 0.3 S 11 13 6 7 1012.4 1012.5 4.2
 
Date/Time
CST
Temp
°C
App
Temp
°C
Dew
Point
°C
Rel
Hum
%
Delta-T
°C
Wind Press
QNH
hPa
Press
MSL
hPa
Rain since
9am
mm
Dir  Spd
km/h
Gust
km/h
Spd
kts
Gust
kts
13/11:30pm 5.2 3.2 4.5 95 0.3 S 4 7 2 4 1012.4 1012.5 4.2
13/11:00pm 5.2 2.2 4.3 94 0.4 S 9 9 5 5 1012.4 1012.5 4.2
13/10:30pm 6.0 3.6 5.1 94 0.4 S 7 9 4 5 1012.4 1012.5 4.2
13/10:00pm 6.7 4.0 5.8 94 0.4 S 9 9 5 5 1012.7 1012.8 4.2
13/09:30pm 7.2 5.2 6.3 94 0.4 S 6 6 3 3 1012.7 1012.8 4.2
13/09:00pm 7.4 4.8 6.3 93 0.5 S 9 9 5 5 1012.6 1012.7 4.2
13/08:30pm 8.4 6.1 7.3 93 0.5 S 9 11 5 6 1012.5 1012.6 4.2
13/08:00pm 9.3 7.2 8.2 93 0.5 S 9 9 5 5 1012.4 1012.5 4.0
13/07:30pm 9.9 7.5 8.7 92 0.6 SSW 11 13 6 7 1012.2 1012.3 4.0
13/07:00pm 10.2 7.9 9.0 92 0.6 S 11 15 6 8 1012.1 1012.2 4.0
13/06:30pm 10.3 7.6 8.9 91 0.7 SW 13 15 7 8 1011.9 1012.0 4.0
13/06:00pm 11.0 8.5 9.6 91 0.7 S 13 15 7 8 1011.7 1011.8 3.8
13/05:30pm 11.6 10.4 10.3 92 0.7 S 7 9 4 5 1011.3 1011.4 2.4
13/05:00pm 11.6 11.7 10.2 91 0.7 CALM 0 0 0 0 1011.1 1011.2 2.2
13/04:30pm 11.8 10.6 10.2 90 0.8 S 7 7 4 4 1011.0 1011.1 2.2
13/04:00pm 11.6 9.9 10.0 90 0.8 SSE 9 13 5 7 1011.0 1011.1 2.0
13/03:30pm 11.7 9.1 9.4 86 1.2 SSE 13 17 7 9 1010.9 1011.0 1.6
13/03:00pm 12.6 9.1 10.1 85 1.3 SSE 19 20 10 11 1010.9 1011.0 0.8
13/02:30pm 12.6 9.4 10.1 85 1.3 S 17 24 9 13 1010.7 1010.8 0.8
13/02:00pm 12.7 11.2 9.2 79 1.8 S 7 9 4 5 1010.6 1010.7 0.8
13/01:30pm 12.0 10.5 9.0 82 1.5 SSE 7 11 4 6 1010.7 1010.8 0.8
13/01:00pm 12.6 10.7 9.2 80 1.7 S 9 13 5 7 1010.8 1010.9 0.4
13/12:30pm 12.1 11.0 9.8 86 1.2 S 6 9 3 5 1011.3 1011.4 0.4
13/12:00pm 11.4 9.3 9.8 90 0.8 SSE 11 15 6 8 1011.6 1011.7 0.4
13/11:30am 10.8 9.0 9.6 92 0.6 S 9 11 5 6 1011.9 1012.0 0.2
13/11:00am 10.7 8.0 9.1 90 0.8 S 13 17 7 9 1012.0 1012.1 0.0
13/10:30am 10.9 8.6 9.0 88 0.9 S 11 15 6 8 1012.2 1012.3 0.0

Other formats

Comma delimited format used in spreadsheet applications
http://www.bom.gov.au/fwo/IDS60801/IDS60801.94820.axf

JavaScript Object Notation format (JSON) in row-major order
http://www.bom.gov.au/fwo/IDS60801/IDS60801.94820.json

Data quality

Most of these data are generated automatically and are frequently updated. Quality checks on data are not normally performed. It is possible for incorrect values to appear. Refer to information at About Latest Weather Observations and please check the disclaimer before using these data.